createdAt,value
2019-04-21T00:02:25.531Z,16.52
2019-04-21T00:04:57.947Z,16.52
2019-04-21T00:07:40.329Z,16.46
2019-04-21T00:10:12.528Z,16.50
2019-04-21T00:12:40.492Z,16.47
2019-04-21T00:15:02.123Z,16.42
2019-04-21T00:17:27.061Z,16.45
2019-04-21T00:20:09.136Z,16.37
2019-04-21T00:22:42.140Z,16.23
2019-04-21T00:25:20.997Z,16.16
2019-04-21T00:27:47.041Z,16.13
2019-04-21T00:30:30.724Z,16.15
2019-04-21T00:32:51.580Z,16.14
2019-04-21T00:35:14.148Z,16.20
2019-04-21T00:38:00.553Z,16.10
2019-04-21T00:40:29.055Z,16.03
2019-04-21T00:43:03.640Z,16.01
2019-04-21T00:45:31.398Z,15.93
2019-04-21T00:48:11.418Z,15.93
2019-04-21T00:51:06.653Z,15.93
2019-04-21T00:53:25.845Z,15.97
2019-04-21T00:55:59.411Z,15.87
2019-04-21T00:58:29.987Z,15.84
2019-04-21T01:00:57.030Z,15.76
2019-04-21T01:03:34.875Z,15.81
2019-04-21T01:06:03.225Z,15.69
2019-04-21T01:08:31.286Z,15.60
2019-04-21T01:11:02.173Z,15.51
2019-04-21T01:13:44.072Z,15.51
2019-04-21T01:16:14.285Z,15.45
2019-04-21T01:18:45.884Z,15.49
2019-04-21T01:20:52.751Z,15.52
2019-04-21T01:23:23.425Z,15.60
2019-04-21T01:26:09.221Z,15.52
2019-04-21T01:28:39.919Z,15.45
2019-04-21T01:31:15.002Z,15.52
2019-04-21T01:33:50.557Z,15.50
2019-04-21T01:36:18.137Z,15.42
2019-04-21T01:38:59.257Z,15.39
2019-04-21T01:41:29.328Z,15.41
2019-04-21T01:43:57.247Z,15.46
2019-04-21T01:46:25.670Z,15.37
2019-04-21T01:48:52.500Z,15.25
2019-04-21T01:51:32.088Z,15.13
2019-04-21T01:54:09.244Z,15.04
2019-04-21T01:56:52.349Z,15.10
2019-04-21T01:59:13.543Z,15.21
2019-04-21T02:02:01.722Z,15.11
2019-04-21T02:04:36.405Z,15.12
2019-04-21T02:07:07.195Z,14.98
2019-04-21T02:09:38.072Z,14.97
2019-04-21T02:12:09.755Z,15.00
2019-04-21T02:14:46.278Z,15.01
2019-04-21T02:17:14.782Z,15.01
2019-04-21T02:19:37.839Z,14.97
2019-04-21T02:22:24.645Z,14.84
2019-04-21T02:27:20.284Z,14.67
2019-04-21T02:29:58.487Z,14.67
2019-04-21T02:32:39.408Z,14.75
2019-04-21T02:40:11.525Z,14.48
2019-04-21T02:45:08.219Z,14.48
2019-04-21T02:47:45.828Z,14.52
2019-04-21T02:50:19.174Z,14.49
2019-04-21T02:52:45.635Z,14.37
2019-04-21T02:55:17.781Z,14.48
2019-04-21T02:57:51.875Z,14.45
2019-04-21T03:00:32.232Z,14.45
2019-04-21T03:03:05.699Z,14.48
2019-04-21T03:08:15.174Z,14.33
2019-04-21T03:13:21.799Z,14.34
2019-04-21T03:18:26.406Z,14.26
2019-04-21T03:21:00.599Z,14.28
2019-04-21T03:23:42.789Z,14.17
2019-04-21T03:26:05.029Z,14.09
2019-04-21T03:28:32.351Z,14.04
2019-04-21T03:31:19.600Z,14.13
2019-04-21T03:36:37.280Z,14.01
2019-04-21T03:38:37.522Z,14.11
2019-04-21T03:41:04.202Z,13.94
2019-04-21T03:43:36.198Z,13.88
2019-04-21T03:46:08.543Z,13.93
2019-04-21T03:48:41.106Z,13.88
2019-04-21T03:51:15.903Z,13.73
2019-04-21T03:53:40.349Z,13.73
2019-04-21T03:56:25.416Z,13.66
2019-04-21T03:58:56.232Z,13.73
2019-04-21T04:01:19.755Z,13.81
2019-04-21T04:04:22.587Z,13.73
2019-04-21T04:09:25.724Z,13.61
2019-04-21T04:14:26.821Z,13.69
2019-04-21T04:19:36.202Z,13.64
2019-04-21T04:22:04.320Z,13.65
2019-04-21T04:24:34.034Z,13.56
2019-04-21T04:27:11.109Z,13.45
2019-04-21T04:32:00.794Z,13.46
2019-04-21T04:34:45.322Z,13.46
2019-04-21T04:37:12.777Z,13.45
2019-04-21T04:42:21.769Z,13.55
2019-04-21T04:47:20.479Z,13.43
2019-04-21T04:57:46.974Z,13.49
2019-04-21T05:00:01.231Z,13.57
2019-04-21T05:05:04.888Z,13.34
2019-04-21T05:07:34.159Z,13.43
2019-04-21T05:10:00.013Z,13.45
2019-04-21T05:12:30.977Z,13.47
2019-04-21T05:22:49.646Z,13.97
2019-04-21T05:25:01.725Z,14.15
2019-04-21T05:27:34.630Z,14.21
2019-04-21T05:30:17.410Z,14.33
2019-04-21T05:32:48.852Z,14.42
2019-04-21T05:35:22.853Z,14.45
2019-04-21T05:38:01.343Z,14.56
2019-04-21T05:40:26.388Z,14.62
2019-04-21T05:43:04.413Z,14.68
2019-04-21T05:45:51.986Z,14.90
2019-04-21T05:48:19.465Z,15.49
2019-04-21T05:50:38.045Z,16.05
2019-04-21T05:53:24.112Z,15.81
2019-04-21T05:55:51.762Z,15.54
2019-04-21T05:58:12.078Z,15.60
2019-04-21T06:03:36.828Z,15.54
2019-04-21T06:06:10.084Z,15.53
2019-04-21T06:08:38.981Z,15.53
2019-04-21T06:11:10.332Z,15.68
2019-04-21T06:13:46.412Z,15.82
2019-04-21T06:16:07.522Z,15.98
2019-04-21T06:21:13.080Z,15.69
2019-04-21T06:23:41.994Z,15.68
2019-04-21T06:26:44.790Z,15.87
2019-04-21T06:28:51.851Z,16.05
2019-04-21T06:33:50.465Z,15.82
2019-04-21T06:36:51.939Z,15.98
2019-04-21T06:39:11.619Z,16.18
2019-04-21T06:41:34.249Z,16.22
2019-04-21T06:49:27.849Z,16.27
2019-04-21T06:51:57.934Z,16.21
2019-04-21T06:54:30.502Z,16.34
2019-04-21T06:59:19.214Z,16.54
2019-04-21T07:01:55.276Z,16.54
2019-04-21T07:09:27.202Z,17.33
2019-04-21T07:11:53.908Z,17.66
2019-04-21T07:19:34.950Z,17.80
2019-04-21T07:21:55.587Z,17.75
2019-04-21T07:24:31.970Z,17.73
2019-04-21T07:27:02.411Z,17.91
2019-04-21T07:29:41.335Z,17.86
2019-04-21T07:32:20.634Z,17.95
2019-04-21T07:34:37.980Z,18.10
2019-04-21T07:37:05.772Z,18.12
2019-04-21T07:39:40.222Z,18.14
2019-04-21T07:42:09.466Z,18.29
2019-04-21T07:44:34.988Z,18.37
2019-04-21T07:47:15.756Z,18.50
2019-04-21T07:49:53.116Z,18.58
2019-04-21T07:52:39.448Z,18.70
2019-04-21T07:57:35.446Z,18.97
2019-04-21T08:02:40.734Z,19.08
2019-04-21T08:05:13.059Z,19.25
2019-04-21T08:07:52.049Z,19.39
2019-04-21T08:10:11.642Z,19.62
2019-04-21T08:12:41.917Z,19.75
2019-04-21T08:15:19.515Z,19.67
2019-04-21T08:17:46.951Z,19.61
2019-04-21T08:20:23.080Z,19.50
2019-04-21T08:22:51.620Z,19.66
2019-04-21T08:25:27.269Z,19.73
2019-04-21T08:30:32.210Z,20.05
2019-04-21T08:33:09.521Z,19.88
2019-04-21T08:35:55.355Z,19.90
2019-04-21T08:38:02.194Z,20.02
2019-04-21T08:40:36.736Z,20.13
2019-04-21T08:43:19.064Z,20.18
2019-04-21T08:45:44.568Z,20.29
2019-04-21T08:48:12.191Z,20.31
2019-04-21T08:50:43.326Z,20.44
2019-04-21T08:53:13.951Z,20.53
2019-04-21T08:58:54.593Z,20.70
2019-04-21T09:01:38.245Z,20.92
2019-04-21T09:04:11.104Z,20.90
2019-04-21T09:09:10.877Z,21.12
2019-04-21T09:11:34.824Z,21.10
2019-04-21T09:14:13.179Z,21.10
2019-04-21T09:16:39.698Z,21.12
2019-04-21T09:19:11.794Z,21.17
2019-04-21T09:24:16.083Z,21.32
2019-04-21T09:26:46.511Z,21.37
2019-04-21T09:29:10.841Z,21.53
2019-04-21T09:31:38.009Z,21.49
2019-04-21T09:34:07.035Z,21.49
2019-04-21T09:36:43.147Z,21.46
2019-04-21T09:39:17.914Z,21.52
2019-04-21T09:41:44.941Z,21.61
2019-04-21T09:44:23.171Z,21.70
2019-04-21T09:46:50.606Z,21.78
2019-04-21T09:49:22.541Z,21.90
2019-04-21T09:51:50.534Z,21.97
2019-04-21T09:54:24.948Z,22.09
2019-04-21T09:56:58.601Z,22.25
2019-04-21T09:59:31.341Z,22.18
2019-04-21T10:02:06.394Z,22.37
2019-04-21T10:04:26.843Z,22.27
2019-04-21T10:06:56.720Z,22.26
2019-04-21T10:09:26.567Z,22.22
2019-04-21T10:11:57.002Z,22.35
2019-04-21T10:14:27.014Z,22.29
2019-04-21T10:17:15.090Z,22.20
2019-04-21T10:19:46.259Z,22.10
2019-04-21T10:22:17.028Z,22.31
2019-04-21T10:24:47.065Z,22.39
2019-04-21T10:27:17.195Z,22.43
2019-04-21T10:29:48.579Z,22.44
2019-04-21T10:32:21.597Z,22.62
2019-04-21T10:34:50.007Z,22.50
2019-04-21T10:37:20.865Z,22.40
2019-04-21T10:39:51.569Z,22.40
2019-04-21T10:42:21.516Z,22.44
2019-04-21T10:44:52.696Z,22.48
2019-04-21T10:47:23.073Z,22.57
2019-04-21T10:49:53.055Z,22.53
2019-04-21T10:52:40.676Z,22.55
2019-04-21T10:55:26.325Z,22.75
2019-04-21T10:57:44.384Z,22.80
2019-04-21T11:00:16.039Z,22.81
2019-04-21T11:02:48.839Z,22.71
2019-04-21T11:05:18.866Z,22.59
2019-04-21T11:08:01.400Z,22.52
2019-04-21T11:10:22.274Z,22.52
2019-04-21T11:12:52.660Z,22.56
2019-04-21T11:15:25.163Z,22.60
2019-04-21T11:17:55.704Z,22.64
2019-04-21T11:20:26.835Z,22.59
2019-04-21T11:22:57.617Z,22.60
2019-04-21T11:25:28.228Z,22.60
2019-04-21T11:27:58.683Z,22.62
2019-04-21T11:30:29.761Z,22.81
2019-04-21T11:32:59.710Z,22.95
2019-04-21T11:35:30.901Z,22.92
2019-04-21T11:38:13.547Z,22.81
2019-04-21T11:40:38.229Z,22.91
2019-04-21T11:43:09.577Z,22.66
2019-04-21T11:45:42.079Z,22.71
2019-04-21T11:48:14.436Z,22.72
2019-04-21T11:50:44.184Z,22.84
2019-04-21T11:53:14.825Z,22.90
2019-04-21T11:55:47.019Z,23.16
2019-04-21T11:58:18.091Z,23.08
2019-04-21T12:00:52.071Z,23.06
2019-04-21T12:03:22.201Z,23.08
2019-04-21T12:05:53.121Z,23.28
2019-04-21T12:08:31.114Z,23.51
2019-04-21T12:10:55.504Z,23.39
2019-04-21T12:13:25.375Z,23.34
2019-04-21T12:15:57.031Z,23.29
2019-04-21T12:18:29.920Z,23.22
2019-04-21T12:20:58.869Z,23.26
2019-04-21T12:23:30.211Z,23.03
2019-04-21T12:26:01.207Z,23.23
2019-04-21T12:28:32.415Z,23.35
2019-04-21T12:31:03.328Z,23.25
2019-04-21T12:33:45.748Z,23.35
2019-04-21T12:36:16.003Z,23.49
2019-04-21T12:38:50.964Z,23.67
2019-04-21T12:41:18.372Z,23.77
2019-04-21T12:43:48.687Z,23.76
2019-04-21T12:46:18.569Z,23.81
2019-04-21T12:48:49.613Z,23.82
2019-04-21T12:51:19.800Z,24.06
2019-04-21T12:53:49.891Z,23.92
2019-04-21T12:56:19.814Z,24.03
2019-04-21T12:58:51.239Z,24.25
2019-04-21T13:01:23.050Z,24.55
2019-04-21T13:03:52.897Z,24.42
2019-04-21T13:06:23.476Z,24.32
2019-04-21T13:08:59.438Z,24.24
2019-04-21T13:11:25.510Z,24.45
2019-04-21T13:13:55.705Z,24.80
2019-04-21T13:16:41.304Z,24.82
2019-04-21T13:19:11.570Z,24.81
2019-04-21T13:21:42.342Z,24.95
2019-04-21T13:24:13.735Z,24.78
2019-04-21T13:26:50.455Z,24.99
2019-04-21T13:29:16.413Z,25.08
2019-04-21T13:31:46.352Z,25.20
2019-04-21T13:34:16.028Z,25.24
2019-04-21T13:36:45.767Z,25.32
2019-04-21T13:39:50.778Z,25.49
2019-04-21T13:42:10.988Z,25.80
2019-04-21T13:44:33.035Z,25.54
2019-04-21T13:47:03.054Z,25.67
2019-04-21T13:49:32.835Z,25.93
2019-04-21T13:52:02.720Z,25.82
2019-04-21T13:54:33.764Z,25.92
2019-04-21T13:57:04.893Z,25.76
2019-04-21T13:59:36.205Z,25.93
2019-04-21T14:02:06.902Z,25.85
2019-04-21T14:04:37.841Z,25.75
2019-04-21T14:07:08.182Z,25.77
2019-04-21T14:09:47.631Z,25.76
2019-04-21T14:12:09.786Z,25.97
2019-04-21T14:14:39.611Z,26.19
2019-04-21T14:17:10.748Z,26.14
2019-04-21T14:19:41.550Z,26.74
2019-04-21T14:22:13.897Z,27.18
2019-04-21T14:24:44.007Z,26.58
2019-04-21T14:27:14.394Z,26.59
2019-04-21T14:29:45.830Z,26.62
2019-04-21T14:32:16.112Z,26.56
2019-04-21T14:34:48.826Z,26.75
2019-04-21T14:37:17.712Z,26.43
2019-04-21T14:39:55.904Z,26.60
2019-04-21T14:42:20.160Z,26.56
2019-04-21T14:44:51.195Z,27.19
2019-04-21T14:47:38.003Z,27.51
2019-04-21T14:50:20.237Z,26.65
2019-04-21T14:52:52.807Z,26.68
2019-04-21T14:55:24.915Z,26.90
2019-04-21T14:57:54.932Z,27.40
2019-04-21T15:00:29.311Z,27.21
2019-04-21T15:02:59.010Z,27.28
2019-04-21T15:05:29.377Z,27.57
2019-04-21T15:07:59.383Z,27.47
2019-04-21T15:10:32.165Z,27.16
2019-04-21T15:13:01.637Z,26.36
2019-04-21T15:15:31.840Z,26.10
2019-04-21T15:18:01.916Z,26.04
2019-04-21T15:20:31.780Z,25.94
2019-04-21T15:23:02.114Z,25.84
2019-04-21T15:25:32.338Z,25.53
2019-04-21T15:28:03.189Z,25.40
2019-04-21T15:30:34.403Z,25.25
2019-04-21T15:33:04.532Z,24.96
2019-04-21T15:35:35.275Z,24.95
2019-04-21T15:38:05.921Z,24.82
2019-04-21T15:40:44.630Z,24.78
2019-04-21T15:43:08.394Z,24.67
2019-04-21T15:45:39.019Z,24.64
2019-04-21T15:48:09.883Z,24.61
2019-04-21T15:50:41.839Z,24.69
2019-04-21T15:53:14.010Z,24.60
2019-04-21T15:55:52.846Z,24.53
2019-04-21T15:58:34.698Z,24.50
2019-04-21T16:01:16.522Z,24.47
2019-04-21T16:03:46.951Z,24.51
2019-04-21T16:06:17.345Z,24.31
2019-04-21T16:08:50.690Z,24.34
2019-04-21T16:11:19.826Z,24.51
2019-04-21T16:13:49.882Z,24.51
2019-04-21T16:16:20.209Z,24.32
2019-04-21T16:18:50.229Z,24.40
2019-04-21T16:21:19.971Z,24.49
2019-04-21T16:23:50.735Z,24.47
2019-04-21T16:26:22.258Z,24.48
2019-04-21T16:28:53.195Z,24.45
2019-04-21T16:31:24.479Z,24.42
2019-04-21T16:33:54.782Z,24.44
2019-04-21T16:36:25.482Z,24.53
2019-04-21T16:38:55.672Z,24.49
2019-04-21T16:41:26.503Z,24.29
2019-04-21T16:43:56.424Z,24.15
2019-04-21T16:46:27.394Z,24.36
2019-04-21T16:48:57.801Z,24.29
2019-04-21T16:51:28.479Z,24.28
2019-04-21T16:54:02.386Z,24.27
2019-04-21T16:56:37.443Z,24.24
2019-04-21T16:59:10.422Z,24.23
2019-04-21T17:01:40.716Z,24.18
2019-04-21T17:04:10.858Z,24.16
2019-04-21T17:06:40.943Z,24.03
2019-04-21T17:09:12.552Z,23.95
2019-04-21T17:11:44.643Z,24.06
2019-04-21T17:14:34.620Z,24.09
2019-04-21T17:17:09.976Z,24.06
2019-04-21T17:19:25.066Z,24.02
2019-04-21T17:21:49.768Z,23.93
2019-04-21T17:24:20.179Z,23.99
2019-04-21T17:26:51.402Z,24.05
2019-04-21T17:29:21.196Z,23.96
2019-04-21T17:31:50.993Z,24.01
2019-04-21T17:34:24.912Z,23.95
2019-04-21T17:36:53.042Z,23.84
2019-04-21T17:39:23.122Z,23.78
2019-04-21T17:42:05.299Z,23.74
2019-04-21T17:44:25.670Z,23.69
2019-04-21T17:47:01.421Z,23.73
2019-04-21T17:49:28.701Z,23.65
2019-04-21T17:52:03.949Z,23.60
2019-04-21T17:54:41.283Z,23.57
2019-04-21T17:57:30.499Z,23.51
2019-04-21T18:00:04.226Z,23.47
2019-04-21T18:02:36.989Z,23.35
2019-04-21T18:05:04.163Z,23.34
2019-04-21T18:07:46.779Z,23.29
2019-04-21T18:10:07.643Z,23.13
2019-04-21T18:12:33.634Z,22.98
2019-04-21T18:15:00.200Z,23.12
2019-04-21T18:17:22.749Z,23.12
2019-04-21T18:19:55.202Z,22.99
2019-04-21T18:22:34.508Z,22.93
2019-04-21T18:25:07.969Z,22.89
2019-04-21T18:27:34.489Z,22.93
2019-04-21T18:30:18.215Z,22.86
2019-04-21T18:32:48.259Z,22.79
2019-04-21T18:35:22.715Z,22.69
2019-04-21T18:38:04.454Z,22.59
2019-04-21T18:40:33.012Z,22.57
2019-04-21T18:43:37.867Z,22.49
2019-04-21T18:46:14.989Z,22.46
2019-04-21T18:48:36.397Z,22.32
2019-04-21T18:51:06.370Z,22.35
2019-04-21T18:53:58.014Z,22.30
2019-04-21T18:56:17.681Z,22.20
2019-04-21T18:58:46.678Z,22.17
2019-04-21T19:01:22.703Z,22.07
2019-04-21T19:03:51.186Z,22.05
2019-04-21T19:06:32.530Z,22.01
2019-04-21T19:09:10.296Z,21.98
2019-04-21T19:11:42.527Z,21.88
2019-04-21T19:14:29.029Z,21.86
2019-04-21T19:16:53.991Z,21.86
2019-04-21T19:21:57.705Z,21.69
2019-04-21T19:24:29.108Z,21.67
2019-04-21T19:26:58.852Z,21.65
2019-04-21T19:29:29.439Z,21.61
2019-04-21T19:32:03.983Z,21.47
2019-04-21T19:34:22.418Z,21.45
2019-04-21T19:36:52.097Z,21.52
2019-04-21T19:39:37.728Z,21.39
2019-04-21T19:42:00.559Z,21.38
2019-04-21T19:44:37.909Z,21.43
2019-04-21T19:47:10.798Z,21.41
2019-04-21T19:49:48.134Z,21.31
2019-04-21T19:52:03.736Z,21.21
2019-04-21T19:54:34.188Z,21.21
2019-04-21T19:57:00.831Z,21.21
2019-04-21T19:59:39.633Z,21.14
2019-04-21T20:02:06.739Z,21.12
2019-04-21T20:04:40.742Z,21.13
2019-04-21T20:07:23.377Z,21.10
2019-04-21T20:09:56.595Z,21.02
2019-04-21T20:12:35.498Z,21.04
2019-04-21T20:15:04.857Z,20.96
2019-04-21T20:17:34.786Z,20.93
2019-04-21T20:19:45.434Z,20.96
2019-04-21T20:22:16.752Z,20.78
2019-04-21T20:24:53.983Z,20.70
2019-04-21T20:27:31.110Z,20.76
2019-04-21T20:30:10.816Z,20.73
2019-04-21T20:32:39.345Z,20.65
2019-04-21T20:35:18.262Z,20.63
2019-04-21T20:37:43.788Z,20.58
2019-04-21T20:40:02.274Z,20.48
2019-04-21T20:42:42.751Z,20.45
2019-04-21T20:45:32.008Z,20.35
2019-04-21T20:47:37.701Z,20.32
2019-04-21T20:50:16.140Z,20.35
2019-04-21T20:52:53.827Z,20.34
2019-04-21T20:55:16.576Z,20.24
2019-04-21T20:57:46.471Z,20.32
2019-04-21T21:00:32.238Z,20.19
2019-04-21T21:03:00.927Z,20.25
2019-04-21T21:05:27.712Z,20.26
2019-04-21T21:08:03.592Z,20.22
2019-04-21T21:10:34.725Z,20.17
2019-04-21T21:13:14.239Z,19.97
2019-04-21T21:15:36.055Z,20.05
2019-04-21T21:18:16.081Z,19.99
2019-04-21T21:20:43.118Z,20.02
2019-04-21T21:23:07.530Z,19.88
2019-04-21T21:25:50.761Z,19.99
2019-04-21T21:28:07.541Z,19.85
2019-04-21T21:30:41.751Z,19.83
2019-04-21T21:33:21.672Z,19.77
2019-04-21T21:35:43.766Z,19.63
2019-04-21T21:38:26.575Z,19.65
2019-04-21T21:40:49.650Z,19.52
2019-04-21T21:43:16.603Z,19.51
2019-04-21T21:45:48.824Z,19.48
2019-04-21T21:48:27.337Z,19.47
2019-04-21T21:50:54.257Z,19.44
2019-04-21T21:53:19.861Z,19.24
2019-04-21T21:55:46.841Z,19.36
2019-04-21T21:58:25.327Z,19.30
2019-04-21T22:00:56.654Z,19.20
2019-04-21T22:03:30.599Z,19.16
2019-04-21T22:06:03.526Z,19.18
2019-04-21T22:08:24.885Z,19.14
2019-04-21T22:10:55.013Z,19.08
2019-04-21T22:13:32.732Z,18.96
2019-04-21T22:16:02.893Z,18.87
2019-04-21T22:18:43.120Z,18.93
2019-04-21T22:21:10.066Z,18.86
2019-04-21T22:23:42.669Z,18.85
2019-04-21T22:26:03.122Z,18.78
2019-04-21T22:28:33.764Z,18.72
2019-04-21T22:31:05.578Z,18.65
2019-04-21T22:33:40.296Z,18.69
2019-04-21T22:36:23.301Z,18.67
2019-04-21T22:38:52.157Z,18.64
2019-04-21T22:41:22.075Z,18.56
2019-04-21T22:43:44.546Z,18.36
2019-04-21T22:46:15.365Z,18.29
2019-04-21T22:48:52.131Z,18.29
2019-04-21T22:51:23.981Z,18.10
2019-04-21T22:53:50.790Z,18.11
2019-04-21T22:56:25.575Z,18.14
2019-04-21T22:58:51.345Z,18.01
2019-04-21T23:01:28.586Z,18.15
2019-04-21T23:03:58.559Z,17.91
2019-04-21T23:06:27.336Z,17.90
2019-04-21T23:08:57.083Z,17.83
2019-04-21T23:11:27.958Z,17.72
2019-04-21T23:14:04.254Z,17.78
2019-04-21T23:16:35.559Z,17.68
2019-04-21T23:19:19.989Z,17.86
2019-04-21T23:21:55.397Z,17.78
2019-04-21T23:24:31.677Z,17.72
2019-04-21T23:26:48.632Z,17.59
2019-04-21T23:29:39.477Z,17.55
2019-04-21T23:31:57.763Z,17.41
2019-04-21T23:34:19.644Z,17.34
2019-04-21T23:36:53.031Z,17.26
2019-04-21T23:39:22.767Z,17.21
2019-04-21T23:41:51.080Z,17.19
2019-04-21T23:44:20.104Z,17.08
2019-04-21T23:46:54.927Z,16.92
2019-04-21T23:49:34.331Z,16.95
2019-04-21T23:51:59.308Z,16.91
2019-04-21T23:54:23.173Z,16.90
2019-04-21T23:56:53.864Z,16.93
2019-04-21T23:59:24.860Z,16.79
